sensor_id;sensor_type;location;lat;lon;timestamp;P1;P2;P0
57798;PMS7003;43626;53.866;30.298;2024-01-15T00:03:18;10.8;8.4;5.2
57798;PMS7003;43626;53.866;30.298;2024-01-15T00:07:46;10.6;8.4;5
57798;PMS7003;43626;53.866;30.298;2024-01-15T00:23:18;11.4;9.2;5
57798;PMS7003;43626;53.866;30.298;2024-01-15T00:27:54;12.4;9.6;5.4
57798;PMS7003;43626;53.866;30.298;2024-01-15T00:33:02;12.6;9.2;5
57798;PMS7003;43626;53.866;30.298;2024-01-15T00:37:28;13;9.8;5.2
57798;PMS7003;43626;53.866;30.298;2024-01-15T00:42:36;13.2;10.8;5.4
57798;PMS7003;43626;53.866;30.298;2024-01-15T00:47:36;14.2;10.2;5.2
57798;PMS7003;43626;53.866;30.298;2024-01-15T00:52:36;11;8.8;5
57798;PMS7003;43626;53.866;30.298;2024-01-15T00:58:04;10;8.2;4.8
57798;PMS7003;43626;53.866;30.298;2024-01-15T01:03:04;8.2;8.2;5
57798;PMS7003;43626;53.866;30.298;2024-01-15T01:08:18;9;7.2;4
57798;PMS7003;43626;53.866;30.298;2024-01-15T01:12:44;7;7;4.3
57798;PMS7003;43626;53.866;30.298;2024-01-15T01:17:42;14.4;12.2;6
57798;PMS7003;43626;53.866;30.298;2024-01-15T01:23:18;14;11.4;5.6
57798;PMS7003;43626;53.866;30.298;2024-01-15T01:28:08;12.4;9;4.8
57798;PMS7003;43626;53.866;30.298;2024-01-15T01:32:28;9.6;8;5
57798;PMS7003;43626;53.866;30.298;2024-01-15T01:37:58;11.2;9;5.2
57798;PMS7003;43626;53.866;30.298;2024-01-15T01:42:48;23;16.6;7.6
57798;PMS7003;43626;53.866;30.298;2024-01-15T01:48:18;13.8;11;5.8
57798;PMS7003;43626;53.866;30.298;2024-01-15T01:52:52;9.6;8;5
57798;PMS7003;43626;53.866;30.298;2024-01-15T01:58:18;10.2;7.6;4.6
57798;PMS7003;43626;53.866;30.298;2024-01-15T02:02:28;11.2;8.8;5.2
57798;PMS7003;43626;53.866;30.298;2024-01-15T02:08:04;12;9.4;6
57798;PMS7003;43626;53.866;30.298;2024-01-15T02:12:28;13.4;9.6;5.2
57798;PMS7003;43626;53.866;30.298;2024-01-15T02:18:00;14.3;9.5;5.3
57798;PMS7003;43626;53.866;30.298;2024-01-15T02:22:28;8.4;7;4
57798;PMS7003;43626;53.866;30.298;2024-01-15T02:27:44;9;7.6;4.2
57798;PMS7003;43626;53.866;30.298;2024-01-15T02:32:28;8.8;6.6;4.2
57798;PMS7003;43626;53.866;30.298;2024-01-15T02:37:36;8.8;7.2;4.2
57798;PMS7003;43626;53.866;30.298;2024-01-15T02:43:16;8.4;6.4;4.2
57798;PMS7003;43626;53.866;30.298;2024-01-15T02:47:44;8.4;6.8;3.6
57798;PMS7003;43626;53.866;30.298;2024-01-15T02:53:19;9.4;7.6;4.8
57798;PMS7003;43626;53.866;30.298;2024-01-15T02:57:54;8;7;4.2
57798;PMS7003;43626;53.866;30.298;2024-01-15T03:03:08;7.8;6.8;4.4
57798;PMS7003;43626;53.866;30.298;2024-01-15T03:07:29;9.6;8.6;4.8
57798;PMS7003;43626;53.866;30.298;2024-01-15T03:12:39;13.6;9.8;5
57798;PMS7003;43626;53.866;30.298;2024-01-15T03:18:18;15;12.8;7.8
57798;PMS7003;43626;53.866;30.298;2024-01-15T03:23:19;9.8;8.2;4.8
57798;PMS7003;43626;53.866;30.298;2024-01-15T03:27:46;8.2;7.2;4.6
57798;PMS7003;43626;53.866;30.298;2024-01-15T03:33:18;10;7.8;4.6
57798;PMS7003;43626;53.866;30.298;2024-01-15T03:38:18;9.4;8;4.6
57798;PMS7003;43626;53.866;30.298;2024-01-15T03:43:04;9.4;7.8;4.8
57798;PMS7003;43626;53.866;30.298;2024-01-15T03:48:16;9.6;7.4;4.4
57798;PMS7003;43626;53.866;30.298;2024-01-15T03:52:28;9.2;7.4;4
57798;PMS7003;43626;53.866;30.298;2024-01-15T03:57:46;11.2;8.4;5.2
57798;PMS7003;43626;53.866;30.298;2024-01-15T04:02:28;9.4;7.8;4.2
57798;PMS7003;43626;53.866;30.298;2024-01-15T04:07:48;7.2;6.2;3.4
57798;PMS7003;43626;53.866;30.298;2024-01-15T04:12:54;6.8;6.4;3.6
57798;PMS7003;43626;53.866;30.298;2024-01-15T04:17:59;8;6.3;4.3
57798;PMS7003;43626;53.866;30.298;2024-01-15T04:22:43;9.6;7.4;4.2
57798;PMS7003;43626;53.866;30.298;2024-01-15T04:28:18;8.6;7.4;4.2
57798;PMS7003;43626;53.866;30.298;2024-01-15T04:33:04;10;7.8;4.2
57798;PMS7003;43626;53.866;30.298;2024-01-15T04:37:44;10.2;9.2;5.2
57798;PMS7003;43626;53.866;30.298;2024-01-15T04:42:48;9.8;7.2;4.2
57798;PMS7003;43626;53.866;30.298;2024-01-15T04:47:58;8.2;6.2;3.4
57798;PMS7003;43626;53.866;30.298;2024-01-15T04:53:08;10.2;7.6;4.6
57798;PMS7003;43626;53.866;30.298;2024-01-15T04:57:48;8.4;6.8;4
57798;PMS7003;43626;53.866;30.298;2024-01-15T05:03:06;8;6.4;3.8
57798;PMS7003;43626;53.866;30.298;2024-01-15T05:08:18;8;6.8;4
57798;PMS7003;43626;53.866;30.298;2024-01-15T05:13:19;8.6;7.2;3.6
57798;PMS7003;43626;53.866;30.298;2024-01-15T05:17:54;10.3;7;4
57798;PMS7003;43626;53.866;30.298;2024-01-15T05:23:19;8;6.4;3.6
57798;PMS7003;43626;53.866;30.298;2024-01-15T05:27:29;9.2;8.6;4.6
57798;PMS7003;43626;53.866;30.298;2024-01-15T05:32:29;11.6;10.6;6.2
57798;PMS7003;43626;53.866;30.298;2024-01-15T05:37:29;13.8;12.2;6.4
57798;PMS7003;43626;53.866;30.298;2024-01-15T05:42:49;9.4;7.6;4.2
57798;PMS7003;43626;53.866;30.298;2024-01-15T05:47:28;8.4;7.8;4
57798;PMS7003;43626;53.866;30.298;2024-01-15T05:52:28;8.8;7.6;4.2
57798;PMS7003;43626;53.866;30.298;2024-01-15T05:58:05;8.8;7.4;4
57798;PMS7003;43626;53.866;30.298;2024-01-15T06:03:20;8.4;7.2;4.2
57798;PMS7003;43626;53.866;30.298;2024-01-15T06:08:17;10.4;8.2;4
57798;PMS7003;43626;53.866;30.298;2024-01-15T06:12:45;7.2;7;3.8
57798;PMS7003;43626;53.866;30.298;2024-01-15T06:17:59;9;6.5;4
57798;PMS7003;43626;53.866;30.298;2024-01-15T06:23:19;9.2;7.2;4
57798;PMS7003;43626;53.866;30.298;2024-01-15T06:28:09;9.6;9;5.4
57798;PMS7003;43626;53.866;30.298;2024-01-15T06:32:49;13.2;11.4;6.2
57798;PMS7003;43626;53.866;30.298;2024-01-15T06:37:59;16;11.8;6.2
57798;PMS7003;43626;53.866;30.298;2024-01-15T06:42:49;10.8;9.4;4.4
57798;PMS7003;43626;53.866;30.298;2024-01-15T06:48:19;11.2;8.4;4.8
57798;PMS7003;43626;53.866;30.298;2024-01-15T06:52:29;10;8;4.6
57798;PMS7003;43626;53.866;30.298;2024-01-15T06:58:19;14.8;10.8;5.4
57798;PMS7003;43626;53.866;30.298;2024-01-15T07:02:29;12.2;9.2;5.6
57798;PMS7003;43626;53.866;30.298;2024-01-15T07:08:05;14.2;10;5.6
57798;PMS7003;43626;53.866;30.298;2024-01-15T07:12:51;13.4;11.4;5.8
57798;PMS7003;43626;53.866;30.298;2024-01-15T07:17:37;16.8;12.6;6
57798;PMS7003;43626;53.866;30.298;2024-01-15T07:22:37;14;11;6.3
57798;PMS7003;43626;53.866;30.298;2024-01-15T07:27:29;15.8;11.6;7
57798;PMS7003;43626;53.866;30.298;2024-01-15T07:32:49;18.6;15.4;7.2
57798;PMS7003;43626;53.866;30.298;2024-01-15T07:37:45;16.2;13.6;7.2
57798;PMS7003;43626;53.866;30.298;2024-01-15T07:43:20;19.6;14.6;8.6
57798;PMS7003;43626;53.866;30.298;2024-01-15T07:48:17;20;16.6;8.8
57798;PMS7003;43626;53.866;30.298;2024-01-15T07:53:19;20;17.2;8.8
57798;PMS7003;43626;53.866;30.298;2024-01-15T07:58:17;23.8;18.2;9.2
57798;PMS7003;43626;53.866;30.298;2024-01-15T08:03:09;21;17.6;9
57798;PMS7003;43626;53.866;30.298;2024-01-15T08:07:29;23.2;18.4;9
57798;PMS7003;43626;53.866;30.298;2024-01-15T08:12:59;26.6;19;9.6
57798;PMS7003;43626;53.866;30.298;2024-01-15T08:18:19;23.6;18.4;9.8
57798;PMS7003;43626;53.866;30.298;2024-01-15T08:23:19;21.3;18.3;9
57798;PMS7003;43626;53.866;30.298;2024-01-15T08:27:45;22.4;17.8;9.4
57798;PMS7003;43626;53.866;30.298;2024-01-15T08:33:17;24;20.2;9.6
57798;PMS7003;43626;53.866;30.298;2024-01-15T08:38:18;22.2;20.6;10
57798;PMS7003;43626;53.866;30.298;2024-01-15T08:43:03;21.2;17;9.8
57798;PMS7003;43626;53.866;30.298;2024-01-15T08:48:19;21.2;18.2;10.2
57798;PMS7003;43626;53.866;30.298;2024-01-15T08:52:37;21;18.8;10.4
57798;PMS7003;43626;53.866;30.298;2024-01-15T08:57:49;24;19.2;10.2
57798;PMS7003;43626;53.866;30.298;2024-01-15T09:02:37;25.2;19.2;11
57798;PMS7003;43626;53.866;30.298;2024-01-15T09:07:29;21.6;18.6;10.6
57798;PMS7003;43626;53.866;30.298;2024-01-15T09:12:29;21.8;18;10
57798;PMS7003;43626;53.866;30.298;2024-01-15T09:17:59;21.4;19;9.8
57798;PMS7003;43626;53.866;30.298;2024-01-15T09:22:29;22;19.3;9.5
57798;PMS7003;43626;53.866;30.298;2024-01-15T09:28:19;23.6;20.2;10.6
57798;PMS7003;43626;53.866;30.298;2024-01-15T09:33:05;21;18;10
57798;PMS7003;43626;53.866;30.298;2024-01-15T09:37:29;23;17.4;10
57798;PMS7003;43626;53.866;30.298;2024-01-15T09:42:37;22.6;19.6;10.4
57798;PMS7003;43626;53.866;30.298;2024-01-15T09:47:59;21.8;18.6;10.2
57798;PMS7003;43626;53.866;30.298;2024-01-15T09:53:09;21.4;18.6;10.4
57798;PMS7003;43626;53.866;30.298;2024-01-15T09:57:29;22;19.6;10.6
57798;PMS7003;43626;53.866;30.298;2024-01-15T10:02:55;21.2;18.6;10.4
57798;PMS7003;43626;53.866;30.298;2024-01-15T10:08:19;24;19.8;10.6
57798;PMS7003;43626;53.866;30.298;2024-01-15T10:13:17;22.8;20;11.2
57798;PMS7003;43626;53.866;30.298;2024-01-15T10:17:55;23.4;18.6;10.4
57798;PMS7003;43626;53.866;30.298;2024-01-15T10:23:07;23.8;19.5;11.3
57798;PMS7003;43626;53.866;30.298;2024-01-15T10:27:59;25.2;18.8;10.4
57798;PMS7003;43626;53.866;30.298;2024-01-15T10:32:29;24;19.8;11
57798;PMS7003;43626;53.866;30.298;2024-01-15T10:38:09;24;20.6;12
57798;PMS7003;43626;53.866;30.298;2024-01-15T10:42:29;25.6;22.2;13.6
57798;PMS7003;43626;53.866;30.298;2024-01-15T10:47:37;23.4;20.8;12.4
57798;PMS7003;43626;53.866;30.298;2024-01-15T10:52:37;26;21.6;12.6
57798;PMS7003;43626;53.866;30.298;2024-01-15T10:58:05;26.6;21.4;11.8
57798;PMS7003;43626;53.866;30.298;2024-01-15T11:03:19;28;23.6;12.8
57798;PMS7003;43626;53.866;30.298;2024-01-15T11:08:19;26.8;23;12.8
57798;PMS7003;43626;53.866;30.298;2024-01-15T11:12:47;27.4;23;12.8
57798;PMS7003;43626;53.866;30.298;2024-01-15T11:17:59;27.2;22.6;12.6
57798;PMS7003;43626;53.866;30.298;2024-01-15T11:23:20;28;25.5;13.3
57798;PMS7003;43626;53.866;30.298;2024-01-15T11:28:07;31.4;25.6;14.6
57798;PMS7003;43626;53.866;30.298;2024-01-15T11:32:49;30.6;26.6;15.6
57798;PMS7003;43626;53.866;30.298;2024-01-15T11:37:59;34.4;27.4;14.6
57798;PMS7003;43626;53.866;30.298;2024-01-15T11:42:59;35;27.6;16.2
57798;PMS7003;43626;53.866;30.298;2024-01-15T11:48:17;31.2;26.4;14.8
57798;PMS7003;43626;53.866;30.298;2024-01-15T11:52:56;29.8;26;13.2
57798;PMS7003;43626;53.866;30.298;2024-01-15T11:58:17;35;28.4;16.8
57798;PMS7003;43626;53.866;30.298;2024-01-15T12:02:53;34.2;29.2;15.6
57798;PMS7003;43626;53.866;30.298;2024-01-15T12:07:33;36.6;29.6;16.6
57798;PMS7003;43626;53.866;30.298;2024-01-15T12:12:35;36.4;30.6;17
57798;PMS7003;43626;53.866;30.298;2024-01-15T12:17:37;37.8;32;18.8
57798;PMS7003;43626;53.866;30.298;2024-01-15T12:22:45;46;34;18.8
57798;PMS7003;43626;53.866;30.298;2024-01-15T12:27:29;38.5;31.5;18.3
57798;PMS7003;43626;53.866;30.298;2024-01-15T12:32:29;40.6;32.8;19.2
57798;PMS7003;43626;53.866;30.298;2024-01-15T12:37:37;40.2;33.2;18.2
57798;PMS7003;43626;53.866;30.298;2024-01-15T12:42:41;38.4;31.6;18.6
57798;PMS7003;43626;53.866;30.298;2024-01-15T12:47:45;42.2;34.2;18.4
57798;PMS7003;43626;53.866;30.298;2024-01-15T12:53:17;40.4;31.4;18.2
57798;PMS7003;43626;53.866;30.298;2024-01-15T12:58:03;41.4;34.4;19
57798;PMS7003;43626;53.866;30.298;2024-01-15T13:03:17;45.6;35.4;19.8
57798;PMS7003;43626;53.866;30.298;2024-01-15T13:07:49;40.4;32;16.8
57798;PMS7003;43626;53.866;30.298;2024-01-15T13:12:59;45.8;35;20.2
57798;PMS7003;43626;53.866;30.298;2024-01-15T13:18:17;45.8;34.6;19.4
57798;PMS7003;43626;53.866;30.298;2024-01-15T13:22:59;46.8;35.6;20.4
57798;PMS7003;43626;53.866;30.298;2024-01-15T13:27:53;44.8;33.5;18.8
57798;PMS7003;43626;53.866;30.298;2024-01-15T13:33:17;42.8;33.6;20
57798;PMS7003;43626;53.866;30.298;2024-01-15T13:38:15;37.6;30.4;16.4
57798;PMS7003;43626;53.866;30.298;2024-01-15T13:43:01;36.4;31.6;18
57798;PMS7003;43626;53.866;30.298;2024-01-15T13:48:17;41.4;33;18
57798;PMS7003;43626;53.866;30.298;2024-01-15T13:52:37;37.6;28.2;16.4
57798;PMS7003;43626;53.866;30.298;2024-01-15T13:57:37;39.4;31;17.4
57798;PMS7003;43626;53.866;30.298;2024-01-15T14:02:29;41.4;32.2;17
57798;PMS7003;43626;53.866;30.298;2024-01-15T14:07:37;41.2;33;18.2
57798;PMS7003;43626;53.866;30.298;2024-01-15T14:13:09;41;31.4;16.4
57798;PMS7003;43626;53.866;30.298;2024-01-15T14:17:59;38.6;30.6;16.8
57798;PMS7003;43626;53.866;30.298;2024-01-15T14:22:45;36.6;30.6;18.2
57798;PMS7003;43626;53.866;30.298;2024-01-15T14:28:17;39.5;33.3;18.3
57798;PMS7003;43626;53.866;30.298;2024-01-15T14:32:31;39;32.4;17.6
57798;PMS7003;43626;53.866;30.298;2024-01-15T14:38:07;40.2;33.2;18.8
57798;PMS7003;43626;53.866;30.298;2024-01-15T14:42:45;38.8;32.2;17.8
57798;PMS7003;43626;53.866;30.298;2024-01-15T14:48:17;44.2;34;18.8
57798;PMS7003;43626;53.866;30.298;2024-01-15T14:53:17;42.2;32.8;18.6
57798;PMS7003;43626;53.866;30.298;2024-01-15T14:58:03;40.6;33.6;17.8
57798;PMS7003;43626;53.866;30.298;2024-01-15T15:03:17;42.6;32.2;18
57798;PMS7003;43626;53.866;30.298;2024-01-15T15:07:29;41.2;32.4;17.6
57798;PMS7003;43626;53.866;30.298;2024-01-15T15:12:29;40.6;32.4;17.2
57798;PMS7003;43626;53.866;30.298;2024-01-15T15:17:37;40.4;33.6;17.2
57798;PMS7003;43626;53.866;30.298;2024-01-15T15:22:29;42.4;34.4;17
57798;PMS7003;43626;53.866;30.298;2024-01-15T15:27:51;44.5;33.5;18.5
57798;PMS7003;43626;53.866;30.298;2024-01-15T15:33:17;42.2;33.6;19.2
57798;PMS7003;43626;53.866;30.298;2024-01-15T15:37:45;45.4;36;21
57798;PMS7003;43626;53.866;30.298;2024-01-15T15:43:17;43.4;34.6;19.6
57798;PMS7003;43626;53.866;30.298;2024-01-15T15:48:03;45.2;35.2;20.4
57798;PMS7003;43626;53.866;30.298;2024-01-15T15:52:45;48;35.6;20.8
57798;PMS7003;43626;53.866;30.298;2024-01-15T15:58:07;47.6;36.8;20
57798;PMS7003;43626;53.866;30.298;2024-01-15T16:02:51;46.2;34.2;19
57798;PMS7003;43626;53.866;30.298;2024-01-15T16:07:51;42.4;33.6;19.2
57798;PMS7003;43626;53.866;30.298;2024-01-15T16:12:41;43.4;34.6;19.4
57798;PMS7003;43626;53.866;30.298;2024-01-15T16:18:07;43.6;33.8;18.8
57798;PMS7003;43626;53.866;30.298;2024-01-15T16:23:03;39.4;32.8;17.8
57798;PMS7003;43626;53.866;30.298;2024-01-15T16:28:17;37.3;32.3;18
57798;PMS7003;43626;53.866;30.298;2024-01-15T16:32:29;38.6;30.6;17.4
57798;PMS7003;43626;53.866;30.298;2024-01-15T16:38:07;42.6;32.6;18
57798;PMS7003;43626;53.866;30.298;2024-01-15T16:42:53;39;30.6;17
57798;PMS7003;43626;53.866;30.298;2024-01-15T16:47:49;36.8;32.6;16.8
57798;PMS7003;43626;53.866;30.298;2024-01-15T16:52:53;37.2;30.2;17.4
57798;PMS7003;43626;53.866;30.298;2024-01-15T16:57:29;42.8;31.8;17.4
57798;PMS7003;43626;53.866;30.298;2024-01-15T17:02:37;41.4;31.8;17.2
57798;PMS7003;43626;53.866;30.298;2024-01-15T17:07:29;38.2;30.8;17.2
57798;PMS7003;43626;53.866;30.298;2024-01-15T17:12:33;33.2;28.8;16.4
57798;PMS7003;43626;53.866;30.298;2024-01-15T17:18:17;38.6;29.4;16.4
57798;PMS7003;43626;53.866;30.298;2024-01-15T17:23:17;36.4;28.8;16.4
57798;PMS7003;43626;53.866;30.298;2024-01-15T17:27:29;37.6;28.8;15.6
57798;PMS7003;43626;53.866;30.298;2024-01-15T17:32:59;34.3;29.3;16
57798;PMS7003;43626;53.866;30.298;2024-01-15T17:38:17;32.8;27.2;16
57798;PMS7003;43626;53.866;30.298;2024-01-15T17:43:07;32;27;15.6
57798;PMS7003;43626;53.866;30.298;2024-01-15T17:47:59;32.2;26.2;15.2
57798;PMS7003;43626;53.866;30.298;2024-01-15T17:53:00;31;26.4;15
57798;PMS7003;43626;53.866;30.298;2024-01-15T17:57:49;35.2;29.4;17
57798;PMS7003;43626;53.866;30.298;2024-01-15T18:03:17;36.2;31.6;16.4
57798;PMS7003;43626;53.866;30.298;2024-01-15T18:07:53;32;27;15.8
57798;PMS7003;43626;53.866;30.298;2024-01-15T18:13:09;33.8;26.6;15
57798;PMS7003;43626;53.866;30.298;2024-01-15T18:17:53;30.2;26.6;16
57798;PMS7003;43626;53.866;30.298;2024-01-15T18:22:47;32;27.8;16.2
57798;PMS7003;43626;53.866;30.298;2024-01-15T18:27:43;34.4;29.4;16.8
57798;PMS7003;43626;53.866;30.298;2024-01-15T18:32:29;34.8;27.5;16
57798;PMS7003;43626;53.866;30.298;2024-01-15T18:37:29;36.6;28.2;15
57798;PMS7003;43626;53.866;30.298;2024-01-15T18:42:29;34.6;28.2;15.8
57798;PMS7003;43626;53.866;30.298;2024-01-15T18:47:49;30.4;27;15.2
57798;PMS7003;43626;53.866;30.298;2024-01-15T18:52:45;33;26.6;15.2
57798;PMS7003;43626;53.866;30.298;2024-01-15T18:58:18;35;26.4;14.6
57798;PMS7003;43626;53.866;30.298;2024-01-15T19:02:37;30.2;25.4;15
57798;PMS7003;43626;53.866;30.298;2024-01-15T19:07:59;33.4;30.2;15.6
57798;PMS7003;43626;53.866;30.298;2024-01-15T19:12:39;34;25.8;14.4
57798;PMS7003;43626;53.866;30.298;2024-01-15T19:17:51;32;26.4;14.6
57798;PMS7003;43626;53.866;30.298;2024-01-15T19:22:29;28.4;25.6;14.6
57798;PMS7003;43626;53.866;30.298;2024-01-15T19:27:59;29.2;24.8;14.6
57798;PMS7003;43626;53.866;30.298;2024-01-15T19:33:15;31.8;26.8;15.3
57798;PMS7003;43626;53.866;30.298;2024-01-15T19:38:15;32.6;28.2;15.6
57798;PMS7003;43626;53.866;30.298;2024-01-15T19:42:51;29.2;25.4;15
57798;PMS7003;43626;53.866;30.298;2024-01-15T19:48:15;27.6;23;13.4
57798;PMS7003;43626;53.866;30.298;2024-01-15T19:52:29;27.8;24.6;13.8
57798;PMS7003;43626;53.866;30.298;2024-01-15T19:58:01;28.6;24.6;13.4
57798;PMS7003;43626;53.866;30.298;2024-01-15T20:02:51;28;21.6;12.8
57798;PMS7003;43626;53.866;30.298;2024-01-15T20:07:45;27.2;22.4;12.2
57798;PMS7003;43626;53.866;30.298;2024-01-15T20:12:29;27.2;22.6;13.6
57798;PMS7003;43626;53.866;30.298;2024-01-15T20:17:45;27.8;24.2;13.8
57798;PMS7003;43626;53.866;30.298;2024-01-15T20:22:37;27.4;23;13.6
57798;PMS7003;43626;53.866;30.298;2024-01-15T20:27:37;23.8;21.2;14
57798;PMS7003;43626;53.866;30.298;2024-01-15T20:33:13;29;22.8;13.5
57798;PMS7003;43626;53.866;30.298;2024-01-15T20:37:45;28.8;22.4;13.2
57798;PMS7003;43626;53.866;30.298;2024-01-15T20:43:15;23.2;18.6;10.8
57798;PMS7003;43626;53.866;30.298;2024-01-15T20:48:07;26.6;22.4;12.6
57798;PMS7003;43626;53.866;30.298;2024-01-15T20:53:05;23.2;19.8;12
57798;PMS7003;43626;53.866;30.298;2024-01-15T20:57:49;30.2;24.2;14.4
57798;PMS7003;43626;53.866;30.298;2024-01-15T21:02:59;25.2;21.6;13.2
57798;PMS7003;43626;53.866;30.298;2024-01-15T21:08:15;25.6;21.8;14
57798;PMS7003;43626;53.866;30.298;2024-01-15T21:13:15;26;22.4;12.8
57798;PMS7003;43626;53.866;30.298;2024-01-15T21:17:51;28.4;25.4;14
57798;PMS7003;43626;53.866;30.298;2024-01-15T21:23:15;26.6;23.2;13.4
57798;PMS7003;43626;53.866;30.298;2024-01-15T21:28:15;27.8;23;13.2
57798;PMS7003;43626;53.866;30.298;2024-01-15T21:33:01;28.3;22.5;13.8
57798;PMS7003;43626;53.866;30.298;2024-01-15T21:38:15;30;24.8;14.2
57798;PMS7003;43626;53.866;30.298;2024-01-15T21:42:29;29;22.8;13.8
57798;PMS7003;43626;53.866;30.298;2024-01-15T21:47:37;27;22.8;13
57798;PMS7003;43626;53.866;30.298;2024-01-15T21:52:37;25;20.8;12.8
57798;PMS7003;43626;53.866;30.298;2024-01-15T21:57:37;21.8;19;11.8
57798;PMS7003;43626;53.866;30.298;2024-01-15T22:02:37;25;21.2;12.8
57798;PMS7003;43626;53.866;30.298;2024-01-15T22:07:59;24.8;20.8;12
57798;PMS7003;43626;53.866;30.298;2024-01-15T22:12:45;26;22.4;13
57798;PMS7003;43626;53.866;30.298;2024-01-15T22:18:15;27.2;23.2;12.8
57798;PMS7003;43626;53.866;30.298;2024-01-15T22:22:53;26.4;20.4;12.8
57798;PMS7003;43626;53.866;30.298;2024-01-15T22:27:37;26.4;21;12.4
57798;PMS7003;43626;53.866;30.298;2024-01-15T22:32:29;27.6;22.2;13.4
57798;PMS7003;43626;53.866;30.298;2024-01-15T22:37:47;27.8;22.3;13
57798;PMS7003;43626;53.866;30.298;2024-01-15T22:43:05;24.6;20.4;13
57798;PMS7003;43626;53.866;30.298;2024-01-15T22:47:29;23.2;20.4;12.4
57798;PMS7003;43626;53.866;30.298;2024-01-15T22:53:05;24.6;20.6;12
57798;PMS7003;43626;53.866;30.298;2024-01-15T22:58:01;25.6;21.6;12.6
57798;PMS7003;43626;53.866;30.298;2024-01-15T23:03:15;25.6;20.4;12.6
57798;PMS7003;43626;53.866;30.298;2024-01-15T23:07:51;25.8;21;12.6
57798;PMS7003;43626;53.866;30.298;2024-01-15T23:13:05;24;20.8;12.2
57798;PMS7003;43626;53.866;30.298;2024-01-15T23:17:51;28.2;23.8;12.8
57798;PMS7003;43626;53.866;30.298;2024-01-15T23:22:41;30.6;24.2;14
57798;PMS7003;43626;53.866;30.298;2024-01-15T23:27:51;29;24.4;13.2
57798;PMS7003;43626;53.866;30.298;2024-01-15T23:32:41;27.4;22.8;13
57798;PMS7003;43626;53.866;30.298;2024-01-15T23:37:43;28.3;24.8;13
57798;PMS7003;43626;53.866;30.298;2024-01-15T23:42:45;26.2;22;12.4
57798;PMS7003;43626;53.866;30.298;2024-01-15T23:48:01;28.2;24.8;13.8
57798;PMS7003;43626;53.866;30.298;2024-01-15T23:53:15;29.8;25.8;14.4
57798;PMS7003;43626;53.866;30.298;2024-01-15T23:58:15;31;26;14.4
